createdAt,value
2019-05-25T00:00:10.809Z,63.03
2019-05-25T00:03:14.666Z,70.57
2019-05-25T00:06:18.586Z,98.63
2019-05-25T00:09:22.438Z,103.80
2019-05-25T00:12:26.405Z,526.47
2019-05-25T00:15:30.265Z,549.03
2019-05-25T00:18:34.179Z,125.07
2019-05-25T00:21:38.062Z,123.50
2019-05-25T00:24:41.934Z,338.23
2019-05-25T00:27:45.779Z,215.83
2019-05-25T00:30:49.653Z,426.63
2019-05-25T00:33:53.502Z,318.10
2019-05-25T00:36:57.406Z,200.67
2019-05-25T00:40:01.255Z,350.73
2019-05-25T00:43:05.146Z,477.63
2019-05-25T00:46:09.026Z,121.73
2019-05-25T00:49:12.913Z,554.77
2019-05-25T00:52:16.813Z,303.03
2019-05-25T00:55:20.810Z,141.33
2019-05-25T00:58:24.646Z,108.30
2019-05-25T01:01:28.616Z,333.83
2019-05-25T01:04:32.490Z,161.43
2019-05-25T01:07:36.439Z,80.30
2019-05-25T01:10:40.301Z,198.30
2019-05-25T01:13:44.218Z,323.60
2019-05-25T01:16:48.064Z,131.53
2019-05-25T01:19:51.938Z,98.40
2019-05-25T01:22:55.795Z,505.33
2019-05-25T01:25:59.687Z,359.23
2019-05-25T01:29:03.674Z,328.83
2019-05-25T01:32:07.551Z,337.80
2019-05-25T01:35:12.305Z,131.07
2019-05-25T01:38:16.220Z,180.47
2019-05-25T01:41:20.086Z,268.07
2019-05-25T01:44:24.020Z,49.23
2019-05-25T01:47:27.972Z,200.00
2019-05-25T01:50:31.828Z,295.53
2019-05-25T01:53:35.673Z,214.83
2019-05-25T01:56:39.571Z,178.87
2019-05-25T01:59:43.445Z,169.90
2019-05-25T02:02:47.362Z,69.97
2019-05-25T02:05:51.175Z,427.37
2019-05-25T02:08:55.137Z,240.87
2019-05-25T02:11:59.052Z,205.17
2019-05-25T02:15:03.016Z,194.40
2019-05-25T02:18:06.892Z,389.30
2019-05-25T02:21:10.767Z,181.70
2019-05-25T02:24:14.710Z,307.87
2019-05-25T02:27:18.596Z,447.17
2019-05-25T02:30:26.819Z,260.37
2019-05-25T02:33:30.746Z,222.47
2019-05-25T02:36:34.635Z,56.10
2019-05-25T02:39:38.514Z,120.97
2019-05-25T02:42:42.380Z,162.03
2019-05-25T02:45:46.432Z,158.33
2019-05-25T02:48:50.228Z,178.13
2019-05-25T02:51:54.113Z,139.20
2019-05-25T02:54:58.002Z,135.93
2019-05-25T02:58:01.928Z,144.73
2019-05-25T03:01:05.871Z,144.97
2019-05-25T03:04:09.857Z,129.40
2019-05-25T03:07:14.312Z,124.50
2019-05-25T03:10:18.315Z,56.17
2019-05-25T03:13:22.222Z,59.30
2019-05-25T03:16:26.119Z,56.67
2019-05-25T03:19:29.979Z,50.27
2019-05-25T03:22:33.913Z,46.73
2019-05-25T03:25:49.019Z,48.57
2019-05-25T03:28:43.377Z,45.20
2019-05-25T03:31:47.343Z,39.97
2019-05-25T03:34:51.240Z,40.13
2019-05-25T03:37:55.101Z,36.70
2019-05-25T03:40:59.007Z,32.53
2019-05-25T03:44:02.946Z,35.90
2019-05-25T03:47:06.857Z,32.00
2019-05-25T03:50:10.712Z,32.70
2019-05-25T03:53:26.326Z,34.30
2019-05-25T03:56:30.136Z,37.00
2019-05-25T03:59:34.101Z,34.40
2019-05-25T04:02:38.152Z,34.97
2019-05-25T04:05:42.034Z,40.93
2019-05-25T04:08:45.893Z,37.23
2019-05-25T04:11:49.824Z,41.10
2019-05-25T04:14:53.718Z,41.33
2019-05-25T04:17:57.734Z,42.50
2019-05-25T04:21:01.594Z,39.73
2019-05-25T04:24:06.030Z,45.83
2019-05-25T04:27:09.944Z,43.53
2019-05-25T04:30:14.095Z,46.53
2019-05-25T04:33:18.013Z,39.13
2019-05-25T04:36:21.859Z,37.30
2019-05-25T04:39:25.754Z,32.60
2019-05-25T04:42:29.641Z,33.47
2019-05-25T04:45:33.512Z,34.83
2019-05-25T04:48:37.399Z,29.67
2019-05-25T04:51:41.232Z,28.33
2019-05-25T04:54:45.108Z,30.20
2019-05-25T04:57:48.978Z,27.77
2019-05-25T05:00:52.912Z,27.13
2019-05-25T05:03:56.849Z,24.47
2019-05-25T05:07:00.785Z,25.57
2019-05-25T05:10:07.093Z,24.50
2019-05-25T05:13:11.012Z,23.50
2019-05-25T05:16:14.837Z,20.17
2019-05-25T05:19:18.714Z,24.90
2019-05-25T05:22:39.402Z,18.90
2019-05-25T05:25:46.152Z,20.73
2019-05-25T05:28:50.043Z,18.33
2019-05-25T05:31:56.646Z,22.27
2019-05-25T05:35:03.464Z,17.67
2019-05-25T05:42:14.911Z,19.40
2019-05-25T05:45:18.790Z,16.57
2019-05-25T05:48:25.583Z,18.63
2019-05-25T05:51:31.989Z,16.27
2019-05-25T05:54:38.682Z,16.73
2019-05-25T05:57:42.631Z,17.63
2019-05-25T06:00:47.229Z,16.67
2019-05-25T06:03:51.119Z,16.73
2019-05-25T06:06:54.974Z,16.97
2019-05-25T06:09:58.878Z,18.73
2019-05-25T06:13:02.712Z,18.63
2019-05-25T06:16:06.635Z,18.77
2019-05-25T06:19:10.460Z,18.47
2019-05-25T06:22:14.348Z,18.57
2019-05-25T06:25:18.484Z,20.33
2019-05-25T06:28:22.627Z,20.37
2019-05-25T06:31:26.588Z,26.27
2019-05-25T06:34:34.028Z,22.30
2019-05-25T06:37:37.968Z,25.07
2019-05-25T06:40:41.892Z,23.23
2019-05-25T06:43:46.396Z,20.53
2019-05-25T06:46:50.311Z,19.23
2019-05-25T06:49:57.561Z,19.67
2019-05-25T06:53:01.753Z,23.17
2019-05-25T06:56:05.596Z,22.57
2019-05-25T06:59:09.508Z,22.33
2019-05-25T07:02:13.338Z,23.53
2019-05-25T07:05:17.232Z,19.77
2019-05-25T07:08:21.116Z,18.13
2019-05-25T07:11:24.989Z,20.07
2019-05-25T07:14:28.855Z,19.47
2019-05-25T07:17:32.767Z,22.47
2019-05-25T07:20:36.588Z,17.87
2019-05-25T07:23:40.468Z,24.63
2019-05-25T07:26:44.328Z,23.55
2019-05-25T07:29:48.347Z,25.77
2019-05-25T07:32:52.187Z,21.30
2019-05-25T07:35:56.081Z,20.35
2019-05-25T07:38:59.962Z,16.65
2019-05-25T07:42:03.895Z,14.33
2019-05-25T07:45:09.388Z,16.52
2019-05-25T07:48:13.340Z,18.67
2019-05-25T07:51:17.306Z,15.75
2019-05-25T07:54:21.153Z,20.68
2019-05-25T07:57:28.422Z,18.55
2019-05-25T08:00:30.543Z,20.27
2019-05-25T08:03:34.430Z,18.92
2019-05-25T08:06:38.271Z,13.20
2019-05-25T08:09:42.108Z,14.35
2019-05-25T08:12:46.682Z,10.50
2019-05-25T08:15:50.522Z,15.28
2019-05-25T08:18:54.427Z,11.75
2019-05-25T08:21:58.239Z,12.07
2019-05-25T08:25:02.098Z,6.05
2019-05-25T08:28:05.979Z,5.95
2019-05-25T08:31:09.910Z,3.87
2019-05-25T08:34:13.884Z,7.05
2019-05-25T08:37:17.778Z,6.97
2019-05-25T08:40:21.574Z,5.50
2019-05-25T08:43:25.436Z,10.43
2019-05-25T08:46:29.263Z,11.80
2019-05-25T08:49:33.153Z,7.28
2019-05-25T08:52:37.310Z,3.90
2019-05-25T08:55:41.230Z,4.47
2019-05-25T08:58:48.263Z,4.55
2019-05-25T09:01:50.628Z,4.03
2019-05-25T09:04:54.488Z,7.17
2019-05-25T09:07:58.397Z,6.90
2019-05-25T09:11:02.226Z,5.95
2019-05-25T09:14:06.115Z,4.50
2019-05-25T09:17:09.973Z,6.00
2019-05-25T09:20:14.076Z,3.27
2019-05-25T09:23:17.953Z,4.17
2019-05-25T09:26:21.882Z,3.20
2019-05-25T09:29:25.736Z,7.53
2019-05-25T09:32:29.685Z,5.42
2019-05-25T09:35:33.577Z,7.87
2019-05-25T09:38:37.503Z,5.45
2019-05-25T09:41:41.506Z,6.30
2019-05-25T09:44:45.409Z,5.62
2019-05-25T09:47:49.238Z,11.30
2019-05-25T09:50:53.126Z,8.63
2019-05-25T09:53:56.952Z,5.55
2019-05-25T09:57:00.948Z,10.90
2019-05-25T10:00:07.864Z,4.85
2019-05-25T10:03:11.867Z,6.85
2019-05-25T10:06:15.699Z,5.30
2019-05-25T10:09:19.577Z,8.00
2019-05-25T10:30:23.228Z,8.13
2019-05-25T10:33:27.144Z,7.72
2019-05-25T10:36:31.458Z,8.05
2019-05-25T10:39:35.328Z,8.07
2019-05-25T10:57:00.396Z,8.43
2019-05-25T11:01:35.060Z,8.68
2019-05-25T11:04:38.962Z,7.70
2019-05-25T11:07:42.801Z,9.33
2019-05-25T11:10:47.177Z,9.00
2019-05-25T11:13:51.354Z,7.87
2019-05-25T11:16:55.261Z,9.15
2019-05-25T11:19:59.098Z,5.95
2019-05-25T11:23:03.041Z,8.25
2019-05-25T11:26:06.937Z,9.08
2019-05-25T11:29:10.817Z,7.37
2019-05-25T11:32:14.701Z,5.22
2019-05-25T11:35:18.986Z,5.97
2019-05-25T11:38:22.823Z,8.45
2019-05-25T11:41:26.669Z,8.45
2019-05-25T11:44:30.508Z,5.87
2019-05-25T11:47:34.396Z,6.35
2019-05-25T11:50:38.327Z,8.83
2019-05-25T11:53:43.717Z,6.60
2019-05-25T11:56:47.659Z,5.08
2019-05-25T11:59:51.570Z,9.03
2019-05-25T12:02:55.516Z,33.02
2019-05-25T12:05:59.456Z,17.12
2019-05-25T12:09:03.290Z,20.82
2019-05-25T12:12:07.309Z,6.83
2019-05-25T12:15:11.583Z,11.57
2019-05-25T12:18:15.483Z,5.55
2019-05-25T12:21:19.292Z,12.75
2019-05-25T12:24:23.174Z,40.90
2019-05-25T12:27:27.018Z,7.00
2019-05-25T12:30:40.268Z,8.48
2019-05-25T12:33:36.435Z,5.75
2019-05-25T12:36:40.450Z,6.28
2019-05-25T12:39:44.275Z,5.72
2019-05-25T12:42:48.177Z,19.57
2019-05-25T12:45:52.005Z,5.62
2019-05-25T12:48:55.908Z,5.15
2019-05-25T12:51:59.819Z,6.65
2019-05-25T12:55:04.252Z,9.60
2019-05-25T12:58:08.082Z,24.80
2019-05-25T13:01:11.960Z,44.77
2019-05-25T13:04:15.807Z,31.00
2019-05-25T13:07:19.722Z,8.23
2019-05-25T13:10:23.787Z,6.60
2019-05-25T13:13:27.663Z,6.78
2019-05-25T13:16:31.526Z,9.65
2019-05-25T13:19:35.433Z,9.03
2019-05-25T13:22:39.690Z,6.20
2019-05-25T13:25:43.594Z,8.83
2019-05-25T13:28:47.701Z,5.97
2019-05-25T13:31:51.637Z,6.15
2019-05-25T13:34:55.551Z,7.80
2019-05-25T13:37:59.448Z,4.35
2019-05-25T13:41:03.298Z,6.42
2019-05-25T13:44:07.176Z,6.40
2019-05-25T13:47:10.999Z,5.70
2019-05-25T13:50:15.648Z,5.08
2019-05-25T13:53:19.502Z,5.67
2019-05-25T13:56:23.491Z,5.40
2019-05-25T13:59:27.347Z,5.45
2019-05-25T14:02:31.351Z,6.00
2019-05-25T14:05:35.202Z,5.10
2019-05-25T14:08:39.112Z,7.87
2019-05-25T14:11:42.937Z,6.47
2019-05-25T14:14:47.014Z,6.95
2019-05-25T14:17:50.907Z,6.92
2019-05-25T14:20:54.837Z,5.97
2019-05-25T14:23:58.708Z,5.53
2019-05-25T14:27:02.751Z,9.65
2019-05-25T14:30:06.966Z,5.95
2019-05-25T14:33:11.027Z,9.50
2019-05-25T14:36:14.878Z,7.62
2019-05-25T14:39:18.803Z,7.17
2019-05-25T14:42:22.622Z,4.15
2019-05-25T14:45:26.540Z,6.97
2019-05-25T14:48:30.374Z,6.42
2019-05-25T14:51:34.322Z,6.30
2019-05-25T14:54:38.154Z,8.35
2019-05-25T14:57:42.028Z,6.92
2019-05-25T15:00:46.176Z,8.98
2019-05-25T15:03:50.089Z,6.67
2019-05-25T15:06:53.953Z,6.10
2019-05-25T15:09:57.797Z,5.78
2019-05-25T15:13:01.688Z,10.20
2019-05-25T15:16:05.578Z,8.03
2019-05-25T15:19:09.443Z,9.88
2019-05-25T15:22:13.491Z,10.98
2019-05-25T15:25:18.027Z,6.35
2019-05-25T15:28:21.958Z,8.60
2019-05-25T15:31:25.811Z,9.83
2019-05-25T15:34:29.702Z,8.95
2019-05-25T15:37:33.538Z,8.80
2019-05-25T15:40:39.111Z,13.13
2019-05-25T15:43:42.941Z,8.35
2019-05-25T16:11:07.543Z,12.18
2019-05-25T16:14:11.451Z,10.35
2019-05-25T16:17:15.299Z,14.60
2019-05-25T16:20:22.069Z,12.20
2019-05-25T16:23:25.927Z,14.10
2019-05-25T16:26:43.129Z,12.43
2019-05-25T16:29:35.375Z,12.25
2019-05-25T16:33:09.819Z,10.65
2019-05-25T16:35:44.815Z,13.43
2019-05-25T16:38:49.418Z,14.70
2019-05-25T16:41:53.275Z,14.80
2019-05-25T16:44:57.256Z,17.95
2019-05-25T16:48:01.221Z,13.28
2019-05-25T16:51:07.123Z,13.10
2019-05-25T16:54:11.363Z,13.78
2019-05-25T16:57:15.458Z,12.78
2019-05-25T17:00:31.607Z,10.93
2019-05-25T17:03:35.752Z,17.25
2019-05-25T17:06:39.585Z,9.15
2019-05-25T17:09:43.474Z,23.45
2019-05-25T17:12:47.293Z,13.18
2019-05-25T17:15:51.200Z,11.53
2019-05-25T17:18:55.041Z,12.33
2019-05-25T17:21:58.912Z,11.40
2019-05-25T17:25:02.775Z,12.13
2019-05-25T17:28:06.751Z,12.35
2019-05-25T17:31:10.645Z,14.07
2019-05-25T17:34:14.492Z,9.80
2019-05-25T17:37:18.507Z,9.68
2019-05-25T17:40:22.414Z,10.63
2019-05-25T17:43:26.510Z,8.73
2019-05-25T17:46:30.445Z,12.25
2019-05-25T17:49:34.445Z,13.40
2019-05-25T17:52:38.564Z,15.45
2019-05-25T17:55:43.045Z,19.05
2019-05-25T17:59:06.253Z,15.55
2019-05-25T18:02:29.642Z,16.32
2019-05-25T18:05:33.742Z,19.15
2019-05-25T18:08:37.646Z,16.05
2019-05-25T18:11:41.656Z,17.75
2019-05-25T18:14:47.006Z,21.57
2019-05-25T18:17:51.043Z,16.02
2019-05-25T18:20:55.141Z,16.52
2019-05-25T18:23:59.018Z,27.70
2019-05-25T18:27:02.955Z,20.90
2019-05-25T18:30:08.412Z,16.97
2019-05-25T18:33:12.311Z,17.35
2019-05-25T18:36:16.327Z,16.85
2019-05-25T18:39:20.752Z,17.83
2019-05-25T18:42:24.661Z,17.52
2019-05-25T18:45:28.571Z,19.75
2019-05-25T18:48:34.483Z,16.87
2019-05-25T18:51:38.202Z,22.87
2019-05-25T18:54:42.120Z,18.83
2019-05-25T18:57:46.775Z,20.03
2019-05-25T19:00:51.001Z,17.87
2019-05-25T19:03:55.226Z,22.30
2019-05-25T19:06:59.563Z,26.93
2019-05-25T19:10:05.591Z,26.33
2019-05-25T19:13:09.623Z,24.13
2019-05-25T19:16:14.366Z,28.70
2019-05-25T19:19:18.360Z,27.77
2019-05-25T19:22:22.300Z,28.60
2019-05-25T19:25:26.144Z,26.30
2019-05-25T19:28:30.079Z,26.53
2019-05-25T19:31:35.191Z,25.53
2019-05-25T19:34:39.035Z,28.23
2019-05-25T19:37:42.924Z,26.97
2019-05-25T19:40:47.060Z,29.00
2019-05-25T19:43:51.071Z,27.50
2019-05-25T19:46:55.302Z,26.83
2019-05-25T19:49:59.149Z,28.57
2019-05-25T19:53:03.224Z,28.10
2019-05-25T19:56:07.287Z,28.03
2019-05-25T19:59:11.348Z,28.70
2019-05-25T20:02:15.310Z,32.23
2019-05-25T20:05:20.748Z,31.40
2019-05-25T20:08:24.632Z,29.47
2019-05-25T20:11:28.486Z,27.37
2019-05-25T20:14:32.432Z,28.40
2019-05-25T20:17:37.383Z,31.30
2019-05-25T20:20:41.368Z,34.27
2019-05-25T20:23:45.240Z,34.53
2019-05-25T20:26:49.076Z,33.70
2019-05-25T20:29:53.003Z,30.70
2019-05-25T20:32:56.909Z,33.87
2019-05-25T20:36:00.881Z,32.77
2019-05-25T20:39:07.364Z,31.00
2019-05-25T20:42:14.782Z,34.20
2019-05-25T20:45:16.956Z,32.17
2019-05-25T20:48:20.987Z,33.67
2019-05-25T20:51:24.930Z,33.77
2019-05-25T20:54:29.023Z,32.33
2019-05-25T20:57:33.121Z,31.70
2019-05-25T21:00:36.919Z,32.77
2019-05-25T21:03:41.052Z,39.30
2019-05-25T21:06:44.951Z,36.23
2019-05-25T21:09:48.875Z,43.50
2019-05-25T21:12:53.002Z,41.70
2019-05-25T21:15:57.003Z,38.03
2019-05-25T21:19:03.065Z,40.67
2019-05-25T21:22:06.488Z,40.40
2019-05-25T21:25:11.312Z,41.80
2019-05-25T21:28:15.201Z,41.43
2019-05-25T21:31:19.100Z,41.70
2019-05-25T21:34:22.990Z,38.97
2019-05-25T21:37:26.905Z,42.10
2019-05-25T21:40:31.052Z,38.00
2019-05-25T21:43:34.928Z,41.73
2019-05-25T21:46:38.867Z,41.30
2019-05-25T21:49:42.884Z,44.97
2019-05-25T21:52:46.760Z,46.33
2019-05-25T21:55:50.666Z,40.57
2019-05-25T21:58:54.599Z,42.03
2019-05-25T22:01:58.642Z,44.00
2019-05-25T22:05:02.537Z,37.63
2019-05-25T22:08:06.662Z,46.53
2019-05-25T22:11:10.567Z,43.10
2019-05-25T22:14:14.706Z,44.00
2019-05-25T22:17:18.580Z,41.83
2019-05-25T22:20:22.446Z,36.33
2019-05-25T22:23:26.421Z,44.80
2019-05-25T22:26:30.321Z,50.80
2019-05-25T22:29:34.229Z,42.57
2019-05-25T22:32:40.446Z,41.70
2019-05-25T22:35:44.369Z,45.03
2019-05-25T22:38:48.186Z,44.07
2019-05-25T22:41:52.128Z,46.60
2019-05-25T22:44:56.048Z,48.60
2019-05-25T22:48:00.052Z,45.13
2019-05-25T22:51:03.965Z,45.50
2019-05-25T22:54:08.104Z,52.23
2019-05-25T22:57:11.932Z,51.27
2019-05-25T23:00:17.142Z,56.93
2019-05-25T23:03:21.096Z,51.67
2019-05-25T23:06:25.022Z,54.80
2019-05-25T23:09:28.848Z,50.93
2019-05-25T23:12:32.757Z,45.70
2019-05-25T23:15:36.681Z,48.40
2019-05-25T23:18:40.822Z,52.80
2019-05-25T23:21:44.627Z,44.73
2019-05-25T23:24:48.527Z,49.20
2019-05-25T23:27:52.537Z,45.67
2019-05-25T23:30:56.419Z,44.60
2019-05-25T23:34:00.388Z,41.97
2019-05-25T23:37:14.356Z,39.40
2019-05-25T23:40:10.217Z,43.47
2019-05-25T23:43:14.346Z,41.03
2019-05-25T23:46:18.355Z,36.60
2019-05-25T23:49:22.236Z,40.03
2019-05-25T23:52:26.079Z,35.40
2019-05-25T23:55:30.253Z,37.23
2019-05-25T23:58:34.131Z,39.20
